createdAt,value
2023-03-05T00:01:35.282Z,2.00
2023-03-05T00:04:02.606Z,2.00
2023-03-05T00:06:29.796Z,2.00
2023-03-05T00:08:58.236Z,2.10
2023-03-05T00:11:28.084Z,2.10
2023-03-05T00:13:54.947Z,2.10
2023-03-05T00:16:22.095Z,2.10
2023-03-05T00:18:49.030Z,2.10
2023-03-05T00:21:18.179Z,2.10
2023-03-05T00:23:44.703Z,2.10
2023-03-05T00:26:11.255Z,2.00
2023-03-05T00:28:37.786Z,2.00
2023-03-05T00:31:04.491Z,1.90
2023-03-05T00:33:31.126Z,1.90
2023-03-05T00:35:58.579Z,1.90
2023-03-05T00:38:25.138Z,1.90
2023-03-05T00:40:51.676Z,1.90
2023-03-05T00:43:18.176Z,1.90
2023-03-05T00:45:44.690Z,1.80
2023-03-05T00:48:11.316Z,1.80
2023-03-05T00:50:37.836Z,1.80
2023-03-05T00:53:04.359Z,1.80
2023-03-05T00:55:30.932Z,1.80
2023-03-05T00:57:57.814Z,1.80
2023-03-05T01:00:24.396Z,1.70
2023-03-05T01:02:51.127Z,1.60
2023-03-05T01:05:17.697Z,1.50
2023-03-05T01:07:44.340Z,1.50
2023-03-05T01:10:11.289Z,1.40
2023-03-05T01:12:38.011Z,1.40
2023-03-05T01:15:05.237Z,1.40
2023-03-05T01:17:31.842Z,1.40
2023-03-05T01:19:58.390Z,1.40
2023-03-05T01:22:24.934Z,1.30
2023-03-05T01:24:51.436Z,1.40
2023-03-05T01:27:17.932Z,1.40
2023-03-05T01:29:44.438Z,1.40
2023-03-05T01:32:11.143Z,1.40
2023-03-05T01:34:37.866Z,1.40
2023-03-05T01:37:04.442Z,1.40
2023-03-05T01:39:30.982Z,1.50
2023-03-05T01:41:57.604Z,1.40
2023-03-05T01:44:25.460Z,1.50
2023-03-05T01:46:52.229Z,1.50
2023-03-05T01:49:24.838Z,1.60
2023-03-05T01:51:51.372Z,1.50
2023-03-05T01:54:19.460Z,1.50
2023-03-05T01:56:46.792Z,1.40
2023-03-05T01:59:13.726Z,1.40
2023-03-05T02:01:42.505Z,1.30
2023-03-05T02:04:10.935Z,1.30
2023-03-05T02:06:38.629Z,1.30
2023-03-05T02:09:05.138Z,1.30
2023-03-05T02:11:32.471Z,1.30
2023-03-05T02:13:59.086Z,1.30
2023-03-05T02:16:25.745Z,1.30
2023-03-05T02:18:52.607Z,1.30
2023-03-05T02:21:29.208Z,1.30
2023-03-05T02:23:55.755Z,1.30
2023-03-05T02:26:22.568Z,1.30
2023-03-05T02:28:53.711Z,1.30
2023-03-05T02:31:21.586Z,1.20
2023-03-05T02:33:48.574Z,1.20
2023-03-05T02:36:15.141Z,1.20
2023-03-05T02:38:42.090Z,1.20
2023-03-05T02:41:08.784Z,1.30
2023-03-05T02:43:35.492Z,1.30
2023-03-05T02:46:02.320Z,1.30
2023-03-05T02:48:28.870Z,1.20
2023-03-05T02:50:55.769Z,1.10
2023-03-05T02:53:23.631Z,1.10
2023-03-05T02:55:50.208Z,1.10
2023-03-05T02:58:17.065Z,1.10
2023-03-05T03:00:44.009Z,1.10
2023-03-05T03:03:10.616Z,1.10
2023-03-05T03:05:37.220Z,1.00
2023-03-05T03:08:04.143Z,1.00
2023-03-05T03:10:30.802Z,1.00
2023-03-05T03:12:57.472Z,1.00
2023-03-05T03:15:23.981Z,0.90
2023-03-05T03:17:50.506Z,1.00
2023-03-05T03:20:18.315Z,1.00
2023-03-05T03:22:45.851Z,1.00
2023-03-05T03:25:16.805Z,1.00
2023-03-05T03:27:43.314Z,1.10
2023-03-05T03:30:10.675Z,1.10
2023-03-05T03:32:37.233Z,1.10
2023-03-05T03:35:03.968Z,1.10
2023-03-05T03:37:30.899Z,1.10
2023-03-05T03:39:57.393Z,1.00
2023-03-05T03:42:24.222Z,1.10
2023-03-05T03:44:51.055Z,1.20
2023-03-05T03:47:17.756Z,1.20
2023-03-05T03:49:44.326Z,1.20
2023-03-05T03:52:10.903Z,1.30
2023-03-05T03:54:37.797Z,1.30
2023-03-05T03:57:04.412Z,1.40
2023-03-05T03:59:31.060Z,1.40
2023-03-05T04:01:57.572Z,1.50
2023-03-05T04:04:26.422Z,1.50
2023-03-05T04:06:52.999Z,1.60
2023-03-05T04:09:19.616Z,1.60
2023-03-05T04:11:46.140Z,1.50
2023-03-05T04:14:12.639Z,1.60
2023-03-05T04:16:39.147Z,1.50
2023-03-05T04:19:09.847Z,1.50
2023-03-05T04:21:36.370Z,1.50
2023-03-05T04:24:03.072Z,1.50
2023-03-05T04:26:29.569Z,1.40
2023-03-05T04:28:56.115Z,1.40
2023-03-05T04:31:23.779Z,1.40
2023-03-05T04:33:50.442Z,1.40
2023-03-05T04:36:17.205Z,1.40
2023-03-05T04:38:43.832Z,1.50
2023-03-05T04:41:10.339Z,1.40
2023-03-05T04:43:36.866Z,1.40
2023-03-05T04:46:03.436Z,1.50
2023-03-05T04:48:29.954Z,1.40
2023-03-05T04:50:57.839Z,1.40
2023-03-05T04:53:24.512Z,1.40
2023-03-05T04:55:54.760Z,1.40
2023-03-05T04:58:21.490Z,1.50
2023-03-05T05:00:48.058Z,1.50
2023-03-05T05:03:14.601Z,1.40
2023-03-05T05:05:41.288Z,1.30
2023-03-05T05:08:07.943Z,1.40
2023-03-05T05:10:34.559Z,1.30
2023-03-05T05:13:01.084Z,1.40
2023-03-05T05:15:27.631Z,1.40
2023-03-05T05:17:54.183Z,1.40
2023-03-05T05:20:20.919Z,1.40
2023-03-05T05:22:47.433Z,1.40
2023-03-05T05:25:14.025Z,1.40
2023-03-05T05:27:40.827Z,1.40
2023-03-05T05:30:07.807Z,1.40
2023-03-05T05:32:34.842Z,1.40
2023-03-05T05:35:01.573Z,1.40
2023-03-05T05:37:29.441Z,1.40
2023-03-05T05:39:55.984Z,1.50
2023-03-05T05:42:23.401Z,1.40
2023-03-05T05:44:50.265Z,1.50
2023-03-05T05:47:17.133Z,1.50
2023-03-05T05:49:43.613Z,1.50
2023-03-05T05:52:11.772Z,1.40
2023-03-05T05:54:38.256Z,1.40
2023-03-05T05:57:04.856Z,1.50
2023-03-05T05:59:31.360Z,1.50
2023-03-05T06:01:57.981Z,1.60
2023-03-05T06:04:24.579Z,1.60
2023-03-05T06:06:51.174Z,1.60
2023-03-05T06:09:17.719Z,1.60
2023-03-05T06:11:44.230Z,1.60
2023-03-05T06:14:12.082Z,1.70
2023-03-05T06:16:39.087Z,1.70
2023-03-05T06:19:06.022Z,1.70
2023-03-05T06:21:33.251Z,1.70
2023-03-05T06:24:00.056Z,1.70
2023-03-05T06:26:26.712Z,1.70
2023-03-05T06:28:53.771Z,1.70
2023-03-05T06:31:21.947Z,1.60
2023-03-05T06:33:49.355Z,1.60
2023-03-05T06:36:17.073Z,1.70
2023-03-05T06:38:44.230Z,1.70
2023-03-05T06:41:11.941Z,1.70
2023-03-05T06:43:39.751Z,1.60
2023-03-05T06:46:08.365Z,1.60
2023-03-05T06:48:35.308Z,1.60
2023-03-05T06:51:01.835Z,1.70
2023-03-05T06:53:28.414Z,1.70
2023-03-05T06:55:54.954Z,1.80
2023-03-05T06:58:21.910Z,1.80
2023-03-05T07:00:48.408Z,1.80
2023-03-05T07:03:14.996Z,1.90
2023-03-05T07:05:41.825Z,1.80
2023-03-05T07:08:08.691Z,1.90
2023-03-05T07:10:39.957Z,1.90
2023-03-05T07:13:06.895Z,1.90
2023-03-05T07:15:33.530Z,2.00
2023-03-05T07:18:00.284Z,2.00
2023-03-05T07:20:26.818Z,2.10
2023-03-05T07:22:53.312Z,2.20
2023-03-05T07:25:21.543Z,2.20
2023-03-05T07:27:48.540Z,2.30
2023-03-05T07:30:15.286Z,2.40
2023-03-05T07:32:41.958Z,2.40
2023-03-05T07:35:08.740Z,2.30
2023-03-05T07:37:35.251Z,2.40
2023-03-05T07:40:01.827Z,2.40
2023-03-05T07:42:28.405Z,2.50
2023-03-05T07:44:55.073Z,2.50
2023-03-05T07:47:23.369Z,2.60
2023-03-05T07:49:49.874Z,2.60
2023-03-05T07:52:16.697Z,2.60
2023-03-05T07:54:43.742Z,2.60
2023-03-05T07:57:10.890Z,2.50
2023-03-05T07:59:37.971Z,2.60
2023-03-05T08:02:04.724Z,2.60
2023-03-05T08:04:31.927Z,2.70
2023-03-05T08:06:59.483Z,2.70
2023-03-05T08:09:26.196Z,2.80
2023-03-05T08:11:52.927Z,3.00
2023-03-05T08:14:19.458Z,3.00
2023-03-05T08:16:48.315Z,3.10
2023-03-05T08:19:15.036Z,3.10
2023-03-05T08:21:41.543Z,3.10
2023-03-05T08:24:08.684Z,3.10
2023-03-05T08:26:38.333Z,3.10
2023-03-05T08:29:05.854Z,3.10
2023-03-05T08:31:32.634Z,3.20
2023-03-05T08:34:00.308Z,3.30
2023-03-05T08:36:27.634Z,3.20
2023-03-05T08:38:54.211Z,3.30
2023-03-05T08:41:20.815Z,3.30
2023-03-05T08:43:47.550Z,3.40
2023-03-05T08:46:14.575Z,3.40
2023-03-05T08:48:41.142Z,3.40
2023-03-05T08:51:09.010Z,3.40
2023-03-05T08:53:35.664Z,3.60
2023-03-05T08:56:02.658Z,3.50
2023-03-05T08:58:29.177Z,3.50
2023-03-05T09:00:56.379Z,3.60
2023-03-05T09:03:22.941Z,3.60
2023-03-05T09:05:49.552Z,3.70
2023-03-05T09:08:16.064Z,3.60
2023-03-05T09:10:42.938Z,3.60
2023-03-05T09:13:09.797Z,3.60
2023-03-05T09:15:36.353Z,3.60
2023-03-05T09:18:03.355Z,3.50
2023-03-05T09:20:29.921Z,3.50
2023-03-05T09:22:56.463Z,3.60
2023-03-05T09:25:23.086Z,3.70
2023-03-05T09:27:49.581Z,3.60
2023-03-05T09:30:16.346Z,3.60
2023-03-05T09:32:42.928Z,3.50
2023-03-05T09:35:10.416Z,3.40
2023-03-05T09:37:36.996Z,3.10
2023-03-05T09:40:03.829Z,2.70
2023-03-05T09:42:45.502Z,2.50
2023-03-05T09:45:26.089Z,2.40
2023-03-05T09:47:52.580Z,2.40
2023-03-05T09:50:32.758Z,2.20
2023-03-05T09:53:02.514Z,2.10
2023-03-05T09:55:35.920Z,2.20
2023-03-05T09:58:04.447Z,2.20
2023-03-05T10:00:36.830Z,2.30
2023-03-05T10:03:10.477Z,2.30
2023-03-05T10:05:50.826Z,2.20
2023-03-05T10:08:19.682Z,2.10
2023-03-05T10:10:50.352Z,2.10
2023-03-05T10:13:16.934Z,2.10
2023-03-05T10:15:52.936Z,2.30
2023-03-05T10:18:31.423Z,2.40
2023-03-05T10:21:16.816Z,2.40
2023-03-05T10:23:57.793Z,2.30
2023-03-05T10:26:33.923Z,2.30
2023-03-05T10:29:19.268Z,2.30
2023-03-05T10:31:53.451Z,2.20
2023-03-05T10:34:38.841Z,2.20
2023-03-05T10:37:20.655Z,2.20
2023-03-05T10:39:50.430Z,2.40
2023-03-05T10:42:29.116Z,2.60
2023-03-05T10:45:01.349Z,2.70
2023-03-05T10:47:27.943Z,2.90
2023-03-05T10:49:55.762Z,3.00
2023-03-05T10:52:36.744Z,3.20
2023-03-05T10:55:13.086Z,3.30
2023-03-05T10:57:39.700Z,3.50
2023-03-05T11:00:06.371Z,3.70
2023-03-05T11:02:33.359Z,3.80
2023-03-05T11:04:59.932Z,3.80
2023-03-05T11:07:26.515Z,3.70
2023-03-05T11:10:11.940Z,3.70
2023-03-05T11:12:38.960Z,3.70
2023-03-05T11:15:14.596Z,3.70
2023-03-05T11:17:47.713Z,3.70
2023-03-05T11:20:23.534Z,3.80
2023-03-05T11:23:02.883Z,4.10
2023-03-05T11:25:29.558Z,4.20
2023-03-05T11:27:56.867Z,4.20
2023-03-05T11:30:27.741Z,4.20
2023-03-05T11:33:10.260Z,4.20
2023-03-05T11:35:38.777Z,4.20
2023-03-05T11:38:06.332Z,4.40
2023-03-05T11:40:35.710Z,4.50
2023-03-05T11:43:03.360Z,4.40
2023-03-05T11:45:31.746Z,4.50
2023-03-05T11:48:08.046Z,4.60
2023-03-05T11:50:35.457Z,4.50
2023-03-05T11:53:09.488Z,4.30
2023-03-05T11:55:37.907Z,4.30
2023-03-05T11:58:04.945Z,4.20
2023-03-05T12:00:32.670Z,4.30
2023-03-05T12:03:01.481Z,4.40
2023-03-05T12:05:28.596Z,4.40
2023-03-05T12:07:57.816Z,4.30
2023-03-05T12:10:25.353Z,4.30
2023-03-05T12:13:13.305Z,4.30
2023-03-05T12:15:58.476Z,4.30
2023-03-05T12:18:40.782Z,4.10
2023-03-05T12:21:26.624Z,3.90
2023-03-05T12:23:54.728Z,3.90
2023-03-05T12:26:57.100Z,3.90
2023-03-05T12:29:32.602Z,3.90
2023-03-05T12:32:03.257Z,4.00
2023-03-05T12:34:42.142Z,3.90
2023-03-05T12:37:12.967Z,4.00
2023-03-05T12:39:47.643Z,4.00
2023-03-05T12:42:29.219Z,4.00
2023-03-05T12:45:19.196Z,4.00
2023-03-05T12:47:46.476Z,3.90
2023-03-05T12:50:28.167Z,3.80
2023-03-05T12:53:04.228Z,3.80
2023-03-05T12:55:33.747Z,3.60
2023-03-05T12:58:00.314Z,3.50
2023-03-05T13:00:28.977Z,3.50
2023-03-05T13:02:58.766Z,3.60
2023-03-05T13:05:27.012Z,3.50
2023-03-05T13:07:53.647Z,3.30
2023-03-05T13:10:22.252Z,3.30
2023-03-05T13:12:53.715Z,3.30
2023-03-05T13:15:21.673Z,3.30
2023-03-05T13:18:03.306Z,3.40
2023-03-05T13:20:38.468Z,3.40
2023-03-05T13:23:12.990Z,3.50
2023-03-05T13:25:39.496Z,3.50
2023-03-05T13:28:17.151Z,3.50
2023-03-05T13:30:51.700Z,3.50
2023-03-05T13:33:22.005Z,3.50
2023-03-05T13:35:48.794Z,3.40
2023-03-05T13:38:44.775Z,3.50
2023-03-05T13:41:11.361Z,3.50
2023-03-05T13:44:04.081Z,3.50
2023-03-05T13:46:32.516Z,3.60
2023-03-05T13:49:17.257Z,3.70
2023-03-05T13:51:45.027Z,3.60
2023-03-05T13:54:14.640Z,3.50
2023-03-05T13:56:58.793Z,3.50
2023-03-05T13:59:30.798Z,3.30
2023-03-05T14:02:02.255Z,3.30
2023-03-05T14:04:30.263Z,3.30
2023-03-05T14:07:04.477Z,3.30
2023-03-05T14:09:36.865Z,3.40
2023-03-05T14:12:23.260Z,3.50
2023-03-05T14:14:50.075Z,3.70
2023-03-05T14:17:23.866Z,3.80
2023-03-05T14:19:50.550Z,3.90
2023-03-05T14:22:34.047Z,3.90
2023-03-05T14:25:00.969Z,3.90
2023-03-05T14:27:31.068Z,3.90
2023-03-05T14:29:57.713Z,3.90
2023-03-05T14:32:30.646Z,3.90
2023-03-05T14:34:58.369Z,3.90
2023-03-05T14:37:46.738Z,3.90
2023-03-05T14:40:14.226Z,3.90
2023-03-05T14:42:55.398Z,3.80
2023-03-05T14:45:33.247Z,3.80
2023-03-05T14:48:01.096Z,3.80
2023-03-05T14:50:29.027Z,3.70
2023-03-05T14:52:57.483Z,3.70
2023-03-05T14:55:25.095Z,3.70
2023-03-05T14:57:53.957Z,3.80
2023-03-05T15:00:22.693Z,3.80
2023-03-05T15:02:49.428Z,3.80
2023-03-05T15:05:16.591Z,3.70
2023-03-05T15:07:44.094Z,3.70
2023-03-05T15:10:21.531Z,3.70
2023-03-05T15:12:50.268Z,3.70
2023-03-05T15:15:17.607Z,3.50
2023-03-05T15:17:47.541Z,3.30
2023-03-05T15:20:15.481Z,3.30
2023-03-05T15:22:42.019Z,3.20
2023-03-05T15:25:08.830Z,3.10
2023-03-05T15:27:35.335Z,3.10
2023-03-05T15:30:01.869Z,3.10
2023-03-05T15:32:29.217Z,3.10
2023-03-05T15:34:56.048Z,3.00
2023-03-05T15:37:22.928Z,3.00
2023-03-05T15:39:49.522Z,2.90
2023-03-05T15:42:16.044Z,2.90
2023-03-05T15:44:42.627Z,2.90
2023-03-05T15:47:09.135Z,2.90
2023-03-05T15:49:35.722Z,3.00
2023-03-05T15:52:02.460Z,2.90
2023-03-05T15:54:29.025Z,3.00
2023-03-05T15:56:55.565Z,3.00
2023-03-05T15:59:22.167Z,3.10
2023-03-05T16:01:49.932Z,3.10
2023-03-05T16:04:16.981Z,3.10
2023-03-05T16:06:45.121Z,3.10
2023-03-05T16:09:12.063Z,3.10
2023-03-05T16:11:42.000Z,3.10
2023-03-05T16:14:10.012Z,3.00
2023-03-05T16:16:36.750Z,3.00
2023-03-05T16:19:04.579Z,3.00
2023-03-05T16:21:31.618Z,3.00
2023-03-05T16:23:59.474Z,3.00
2023-03-05T16:26:26.084Z,3.00
2023-03-05T16:28:52.788Z,2.90
2023-03-05T16:31:19.343Z,2.90
2023-03-05T16:33:45.933Z,2.90
2023-03-05T16:36:21.775Z,2.90
2023-03-05T16:38:49.208Z,2.90
2023-03-05T16:41:16.390Z,2.90
2023-03-05T16:43:44.106Z,2.90
2023-03-05T16:46:11.552Z,2.90
2023-03-05T16:48:38.258Z,2.90
2023-03-05T16:51:05.430Z,2.90
2023-03-05T16:53:32.706Z,2.80
2023-03-05T16:55:59.286Z,2.80
2023-03-05T16:58:25.787Z,2.90
2023-03-05T17:00:52.415Z,2.80
2023-03-05T17:03:19.914Z,2.80
2023-03-05T17:05:46.522Z,2.80
2023-03-05T17:08:13.045Z,2.70
2023-03-05T17:10:39.668Z,2.70
2023-03-05T17:13:06.215Z,2.60
2023-03-05T17:15:33.947Z,2.60
2023-03-05T17:18:00.865Z,2.60
2023-03-05T17:20:27.582Z,2.60
2023-03-05T17:22:54.154Z,2.60
2023-03-05T17:25:22.369Z,2.60
2023-03-05T17:27:48.892Z,2.60
2023-03-05T17:30:15.730Z,2.60
2023-03-05T17:32:42.314Z,2.50
2023-03-05T17:35:18.718Z,2.50
2023-03-05T17:37:45.259Z,2.50
2023-03-05T17:40:13.062Z,2.40
2023-03-05T17:42:39.625Z,2.40
2023-03-05T17:45:07.035Z,2.40
2023-03-05T17:47:34.041Z,2.50
2023-03-05T17:50:01.153Z,2.50
2023-03-05T17:52:27.803Z,2.50
2023-03-05T17:54:54.374Z,2.40
2023-03-05T17:57:21.322Z,2.50
2023-03-05T17:59:48.126Z,2.40
2023-03-05T18:02:14.825Z,2.40
2023-03-05T18:04:41.496Z,2.30
2023-03-05T18:07:08.055Z,2.30
2023-03-05T18:09:34.588Z,2.30
2023-03-05T18:12:01.103Z,2.30
2023-03-05T18:14:27.628Z,2.30
2023-03-05T18:16:54.759Z,2.30
2023-03-05T18:19:21.787Z,2.30
2023-03-05T18:21:49.585Z,2.30
2023-03-05T18:24:16.078Z,2.30
2023-03-05T18:26:42.566Z,2.40
2023-03-05T18:29:09.212Z,2.30
2023-03-05T18:31:35.727Z,2.30
2023-03-05T18:34:03.936Z,2.30
2023-03-05T18:36:30.453Z,2.30
2023-03-05T18:38:57.144Z,2.30
2023-03-05T18:41:27.532Z,2.30
2023-03-05T18:43:54.668Z,2.30
2023-03-05T18:46:21.387Z,2.30
2023-03-05T18:48:48.120Z,2.30
2023-03-05T18:51:15.840Z,2.40
2023-03-05T18:53:44.147Z,2.40
2023-03-05T18:56:10.828Z,2.40
2023-03-05T18:58:37.374Z,2.40
2023-03-05T19:01:04.553Z,2.40
2023-03-05T19:03:31.122Z,2.40
2023-03-05T19:05:57.900Z,2.40
2023-03-05T19:08:24.425Z,2.40
2023-03-05T19:10:51.044Z,2.30
2023-03-05T19:13:40.301Z,2.40
2023-03-05T19:16:07.977Z,2.40
2023-03-05T19:18:39.597Z,2.50
2023-03-05T19:21:08.273Z,2.40
2023-03-05T19:23:34.858Z,2.40
2023-03-05T19:26:02.149Z,2.40
2023-03-05T19:28:30.188Z,2.50
2023-03-05T19:30:57.018Z,2.50
2023-03-05T19:33:25.014Z,2.40
2023-03-05T19:35:51.880Z,2.40
2023-03-05T19:38:18.509Z,2.40
2023-03-05T19:40:45.190Z,2.30
2023-03-05T19:43:11.795Z,2.30
2023-03-05T19:45:38.374Z,2.40
2023-03-05T19:48:05.101Z,2.30
2023-03-05T19:50:33.540Z,2.30
2023-03-05T19:53:01.474Z,2.20
2023-03-05T19:55:28.188Z,2.30
2023-03-05T19:57:54.768Z,2.30
2023-03-05T20:00:21.554Z,2.20
2023-03-05T20:02:48.673Z,2.20
2023-03-05T20:05:15.539Z,2.30
2023-03-05T20:07:42.058Z,2.30
2023-03-05T20:10:09.099Z,2.20
2023-03-05T20:12:36.431Z,2.10
2023-03-05T20:15:03.166Z,2.00
2023-03-05T20:17:29.720Z,2.00
2023-03-05T20:19:58.891Z,2.00
2023-03-05T20:22:25.718Z,1.90
2023-03-05T20:24:52.383Z,1.80
2023-03-05T20:27:18.932Z,1.80
2023-03-05T20:29:46.007Z,1.80
2023-03-05T20:32:12.682Z,1.80
2023-03-05T20:34:39.218Z,1.70
2023-03-05T20:37:06.297Z,1.70
2023-03-05T20:39:32.874Z,1.70
2023-03-05T20:42:00.730Z,1.60
2023-03-05T20:44:27.314Z,1.60
2023-03-05T20:47:02.663Z,1.60
2023-03-05T20:49:29.417Z,1.50
2023-03-05T20:51:55.954Z,1.40
2023-03-05T20:54:23.929Z,1.30
2023-03-05T20:56:50.578Z,1.40
2023-03-05T20:59:17.579Z,1.30
2023-03-05T21:01:44.229Z,1.30
2023-03-05T21:04:10.868Z,1.20
2023-03-05T21:06:38.320Z,1.20
2023-03-05T21:09:04.998Z,1.20
2023-03-05T21:11:32.223Z,1.20
2023-03-05T21:13:59.295Z,1.20
2023-03-05T21:16:26.905Z,1.10
2023-03-05T21:18:54.229Z,1.10
2023-03-05T21:21:20.765Z,1.10
2023-03-05T21:23:47.527Z,1.10
2023-03-05T21:26:14.292Z,1.10
2023-03-05T21:28:40.978Z,1.10
2023-03-05T21:31:14.704Z,1.10
2023-03-05T21:33:42.207Z,1.00
2023-03-05T21:36:09.075Z,1.00
2023-03-05T21:38:35.710Z,0.90
2023-03-05T21:41:02.780Z,0.90
2023-03-05T21:43:31.259Z,0.90
2023-03-05T21:45:59.603Z,0.90
2023-03-05T21:48:26.216Z,0.90
2023-03-05T21:50:52.908Z,0.90
2023-03-05T21:53:19.801Z,0.90
2023-03-05T21:56:15.715Z,0.90
2023-03-05T21:58:42.233Z,1.00
2023-03-05T22:01:10.545Z,1.00
2023-03-05T22:03:37.218Z,1.00
2023-03-05T22:06:04.455Z,1.00
2023-03-05T22:08:31.502Z,0.90
2023-03-05T22:10:58.031Z,0.90
2023-03-05T22:13:24.534Z,0.90
2023-03-05T22:15:52.215Z,0.90
2023-03-05T22:18:20.217Z,0.90
2023-03-05T22:20:47.105Z,0.90
2023-03-05T22:23:13.812Z,0.90
2023-03-05T22:25:40.656Z,1.00
2023-03-05T22:28:07.640Z,1.00
2023-03-05T22:30:34.259Z,1.00
2023-03-05T22:33:01.203Z,1.10
2023-03-05T22:35:28.255Z,1.20
2023-03-05T22:37:54.894Z,1.30
2023-03-05T22:40:21.869Z,1.30
2023-03-05T22:42:48.480Z,1.40
2023-03-05T22:45:16.869Z,1.40
2023-03-05T22:47:46.183Z,1.50
2023-03-05T22:50:12.841Z,1.40
2023-03-05T22:52:39.442Z,1.50
2023-03-05T22:55:06.264Z,1.60
2023-03-05T22:57:33.029Z,1.60
2023-03-05T22:59:59.723Z,1.70
2023-03-05T23:02:26.218Z,1.70
2023-03-05T23:04:54.825Z,1.70
2023-03-05T23:07:33.213Z,1.80
2023-03-05T23:10:01.552Z,1.70
2023-03-05T23:12:29.618Z,1.70
2023-03-05T23:14:58.335Z,1.60
2023-03-05T23:17:24.888Z,1.70
2023-03-05T23:19:51.395Z,1.70
2023-03-05T23:22:17.975Z,1.70
2023-03-05T23:24:44.580Z,1.70
2023-03-05T23:27:13.616Z,1.70
2023-03-05T23:29:58.763Z,1.80
2023-03-05T23:32:28.749Z,1.80
2023-03-05T23:34:56.091Z,1.90
2023-03-05T23:37:22.681Z,2.00
2023-03-05T23:39:49.183Z,2.00
2023-03-05T23:42:15.699Z,2.00
2023-03-05T23:44:42.227Z,2.00
2023-03-05T23:47:08.743Z,2.00
2023-03-05T23:49:35.302Z,2.00
2023-03-05T23:52:01.878Z,2.10
2023-03-05T23:54:28.380Z,2.00
2023-03-05T23:56:54.943Z,1.90
2023-03-05T23:59:21.475Z,2.00
